sensor_id;sensor_type;location;lat;lon;timestamp;P1;durP1;ratioP1;P2;durP2;ratioP2
21424;SDS011;10873;51.132;16.848;2023-12-14T00:01:28;31.83;;;21.13;;
21424;SDS011;10873;51.132;16.848;2023-12-14T00:03:54;38.35;;;22.73;;
21424;SDS011;10873;51.132;16.848;2023-12-14T00:06:20;32.92;;;21.80;;
21424;SDS011;10873;51.132;16.848;2023-12-14T00:08:46;37.03;;;23.08;;
21424;SDS011;10873;51.132;16.848;2023-12-14T00:11:12;34.25;;;21.83;;
21424;SDS011;10873;51.132;16.848;2023-12-14T00:13:38;36.10;;;22.15;;
21424;SDS011;10873;51.132;16.848;2023-12-14T00:16:05;33.70;;;21.48;;
21424;SDS011;10873;51.132;16.848;2023-12-14T00:18:34;34.00;;;21.48;;
21424;SDS011;10873;51.132;16.848;2023-12-14T00:21:01;35.72;;;21.73;;
21424;SDS011;10873;51.132;16.848;2023-12-14T00:23:27;32.85;;;21.42;;
21424;SDS011;10873;51.132;16.848;2023-12-14T00:25:53;33.17;;;21.90;;
21424;SDS011;10873;51.132;16.848;2023-12-14T00:28:19;32.65;;;21.08;;
21424;SDS011;10873;51.132;16.848;2023-12-14T00:30:45;32.55;;;20.35;;
21424;SDS011;10873;51.132;16.848;2023-12-14T00:33:11;31.50;;;21.45;;
21424;SDS011;10873;51.132;16.848;2023-12-14T00:35:39;31.85;;;20.38;;
21424;SDS011;10873;51.132;16.848;2023-12-14T00:38:05;32.53;;;20.38;;
21424;SDS011;10873;51.132;16.848;2023-12-14T00:40:31;31.25;;;20.30;;
21424;SDS011;10873;51.132;16.848;2023-12-14T00:42:57;30.60;;;20.13;;
21424;SDS011;10873;51.132;16.848;2023-12-14T00:45:23;32.33;;;20.45;;
21424;SDS011;10873;51.132;16.848;2023-12-14T00:47:49;32.47;;;19.50;;
21424;SDS011;10873;51.132;16.848;2023-12-14T00:50:15;29.60;;;19.75;;
21424;SDS011;10873;51.132;16.848;2023-12-14T00:52:42;29.35;;;19.73;;
21424;SDS011;10873;51.132;16.848;2023-12-14T00:55:08;30.08;;;19.65;;
21424;SDS011;10873;51.132;16.848;2023-12-14T00:57:34;32.05;;;19.95;;
21424;SDS011;10873;51.132;16.848;2023-12-14T01:00:00;31.95;;;20.67;;
21424;SDS011;10873;51.132;16.848;2023-12-14T01:02:26;29.83;;;20.23;;
21424;SDS011;10873;51.132;16.848;2023-12-14T01:04:52;30.75;;;20.25;;
21424;SDS011;10873;51.132;16.848;2023-12-14T01:07:18;31.90;;;20.42;;
21424;SDS011;10873;51.132;16.848;2023-12-14T01:09:45;30.55;;;20.80;;
21424;SDS011;10873;51.132;16.848;2023-12-14T01:12:11;29.58;;;19.50;;
21424;SDS011;10873;51.132;16.848;2023-12-14T01:14:37;31.85;;;21.10;;
21424;SDS011;10873;51.132;16.848;2023-12-14T01:17:04;32.42;;;21.10;;
21424;SDS011;10873;51.132;16.848;2023-12-14T01:19:29;31.17;;;20.92;;
21424;SDS011;10873;51.132;16.848;2023-12-14T01:21:56;31.17;;;20.73;;
21424;SDS011;10873;51.132;16.848;2023-12-14T01:24:21;29.05;;;19.95;;
21424;SDS011;10873;51.132;16.848;2023-12-14T01:26:49;30.13;;;20.20;;
21424;SDS011;10873;51.132;16.848;2023-12-14T01:29:15;29.02;;;19.10;;
21424;SDS011;10873;51.132;16.848;2023-12-14T01:31:41;27.45;;;19.67;;
21424;SDS011;10873;51.132;16.848;2023-12-14T01:34:07;29.35;;;20.40;;
21424;SDS011;10873;51.132;16.848;2023-12-14T01:36:35;29.27;;;19.45;;
21424;SDS011;10873;51.132;16.848;2023-12-14T01:39:01;29.20;;;19.65;;
21424;SDS011;10873;51.132;16.848;2023-12-14T01:41:28;27.90;;;19.75;;
21424;SDS011;10873;51.132;16.848;2023-12-14T01:43:55;28.08;;;19.30;;
21424;SDS011;10873;51.132;16.848;2023-12-14T01:46:21;29.90;;;19.83;;
21424;SDS011;10873;51.132;16.848;2023-12-14T01:48:47;29.90;;;19.08;;
21424;SDS011;10873;51.132;16.848;2023-12-14T01:51:13;26.30;;;18.20;;
21424;SDS011;10873;51.132;16.848;2023-12-14T01:53:39;26.85;;;18.38;;
21424;SDS011;10873;51.132;16.848;2023-12-14T01:56:06;26.17;;;18.35;;
21424;SDS011;10873;51.132;16.848;2023-12-14T01:58:33;27.00;;;18.70;;
21424;SDS011;10873;51.132;16.848;2023-12-14T02:01:02;27.10;;;18.52;;
21424;SDS011;10873;51.132;16.848;2023-12-14T02:03:33;28.52;;;18.33;;
21424;SDS011;10873;51.132;16.848;2023-12-14T02:05:59;27.30;;;18.52;;
21424;SDS011;10873;51.132;16.848;2023-12-14T02:08:26;26.95;;;18.60;;
21424;SDS011;10873;51.132;16.848;2023-12-14T02:10:53;28.38;;;19.23;;
21424;SDS011;10873;51.132;16.848;2023-12-14T02:13:18;29.60;;;18.70;;
21424;SDS011;10873;51.132;16.848;2023-12-14T02:15:45;28.33;;;18.38;;
21424;SDS011;10873;51.132;16.848;2023-12-14T02:18:13;29.02;;;19.00;;
21424;SDS011;10873;51.132;16.848;2023-12-14T02:20:39;25.70;;;18.00;;
21424;SDS011;10873;51.132;16.848;2023-12-14T02:23:07;27.92;;;18.88;;
21424;SDS011;10873;51.132;16.848;2023-12-14T02:25:33;28.50;;;18.60;;
21424;SDS011;10873;51.132;16.848;2023-12-14T02:27:59;29.15;;;19.27;;
21424;SDS011;10873;51.132;16.848;2023-12-14T02:30:25;30.42;;;19.92;;
21424;SDS011;10873;51.132;16.848;2023-12-14T02:32:51;28.33;;;19.15;;
21424;SDS011;10873;51.132;16.848;2023-12-14T02:35:17;29.58;;;18.88;;
21424;SDS011;10873;51.132;16.848;2023-12-14T02:37:43;28.95;;;19.10;;
21424;SDS011;10873;51.132;16.848;2023-12-14T02:40:11;26.08;;;17.73;;
21424;SDS011;10873;51.132;16.848;2023-12-14T02:42:37;25.63;;;17.98;;
21424;SDS011;10873;51.132;16.848;2023-12-14T02:45:03;25.75;;;18.10;;
21424;SDS011;10873;51.132;16.848;2023-12-14T02:47:30;28.52;;;18.83;;
21424;SDS011;10873;51.132;16.848;2023-12-14T02:49:56;29.30;;;18.92;;
21424;SDS011;10873;51.132;16.848;2023-12-14T02:52:22;27.17;;;18.63;;
21424;SDS011;10873;51.132;16.848;2023-12-14T02:54:48;29.83;;;18.90;;
21424;SDS011;10873;51.132;16.848;2023-12-14T02:57:15;27.70;;;18.77;;
21424;SDS011;10873;51.132;16.848;2023-12-14T02:59:42;27.35;;;17.95;;
21424;SDS011;10873;51.132;16.848;2023-12-14T03:02:07;26.75;;;18.35;;
21424;SDS011;10873;51.132;16.848;2023-12-14T03:04:34;26.85;;;18.40;;
21424;SDS011;10873;51.132;16.848;2023-12-14T03:07:02;26.70;;;18.50;;
21424;SDS011;10873;51.132;16.848;2023-12-14T03:09:29;27.38;;;17.77;;
21424;SDS011;10873;51.132;16.848;2023-12-14T03:11:54;28.50;;;19.60;;
21424;SDS011;10873;51.132;16.848;2023-12-14T03:14:22;30.75;;;19.38;;
21424;SDS011;10873;51.132;16.848;2023-12-14T03:16:48;28.70;;;19.15;;
21424;SDS011;10873;51.132;16.848;2023-12-14T03:19:14;28.67;;;19.30;;
21424;SDS011;10873;51.132;16.848;2023-12-14T03:21:41;28.70;;;19.58;;
21424;SDS011;10873;51.132;16.848;2023-12-14T03:24:07;25.85;;;18.65;;
21424;SDS011;10873;51.132;16.848;2023-12-14T03:26:34;27.75;;;18.83;;
21424;SDS011;10873;51.132;16.848;2023-12-14T03:29:00;27.67;;;19.02;;
21424;SDS011;10873;51.132;16.848;2023-12-14T03:31:28;28.60;;;19.20;;
21424;SDS011;10873;51.132;16.848;2023-12-14T03:33:54;29.45;;;19.20;;
21424;SDS011;10873;51.132;16.848;2023-12-14T03:36:20;29.25;;;18.98;;
21424;SDS011;10873;51.132;16.848;2023-12-14T03:38:48;25.90;;;17.67;;
21424;SDS011;10873;51.132;16.848;2023-12-14T03:41:14;27.15;;;18.85;;
21424;SDS011;10873;51.132;16.848;2023-12-14T03:43:40;27.27;;;18.73;;
21424;SDS011;10873;51.132;16.848;2023-12-14T03:46:06;27.17;;;18.25;;
21424;SDS011;10873;51.132;16.848;2023-12-14T03:48:33;24.88;;;17.60;;
21424;SDS011;10873;51.132;16.848;2023-12-14T03:51:01;27.40;;;18.83;;
21424;SDS011;10873;51.132;16.848;2023-12-14T03:53:28;23.60;;;17.65;;
21424;SDS011;10873;51.132;16.848;2023-12-14T03:55:54;27.08;;;18.73;;
21424;SDS011;10873;51.132;16.848;2023-12-14T03:58:21;25.55;;;18.23;;
21424;SDS011;10873;51.132;16.848;2023-12-14T04:00:47;26.63;;;17.95;;
21424;SDS011;10873;51.132;16.848;2023-12-14T04:03:13;27.40;;;17.98;;
21424;SDS011;10873;51.132;16.848;2023-12-14T04:05:40;26.80;;;17.75;;
21424;SDS011;10873;51.132;16.848;2023-12-14T04:08:06;27.98;;;17.80;;
21424;SDS011;10873;51.132;16.848;2023-12-14T04:10:32;26.40;;;18.00;;
21424;SDS011;10873;51.132;16.848;2023-12-14T04:12:58;25.70;;;17.55;;
21424;SDS011;10873;51.132;16.848;2023-12-14T04:15:24;26.23;;;17.50;;
21424;SDS011;10873;51.132;16.848;2023-12-14T04:17:50;25.73;;;17.63;;
21424;SDS011;10873;51.132;16.848;2023-12-14T04:20:16;25.67;;;17.45;;
21424;SDS011;10873;51.132;16.848;2023-12-14T04:22:44;26.90;;;17.83;;
21424;SDS011;10873;51.132;16.848;2023-12-14T04:25:11;25.02;;;17.05;;
21424;SDS011;10873;51.132;16.848;2023-12-14T04:27:37;25.52;;;17.67;;
21424;SDS011;10873;51.132;16.848;2023-12-14T04:30:03;26.05;;;17.92;;
21424;SDS011;10873;51.132;16.848;2023-12-14T04:32:31;25.63;;;18.10;;
21424;SDS011;10873;51.132;16.848;2023-12-14T04:34:57;26.48;;;18.27;;
21424;SDS011;10873;51.132;16.848;2023-12-14T04:37:23;25.40;;;17.27;;
21424;SDS011;10873;51.132;16.848;2023-12-14T04:39:50;27.90;;;18.58;;
21424;SDS011;10873;51.132;16.848;2023-12-14T04:42:17;28.30;;;17.75;;
21424;SDS011;10873;51.132;16.848;2023-12-14T04:44:42;25.88;;;17.25;;
21424;SDS011;10873;51.132;16.848;2023-12-14T04:47:08;25.67;;;17.77;;
21424;SDS011;10873;51.132;16.848;2023-12-14T04:49:34;26.00;;;18.08;;
21424;SDS011;10873;51.132;16.848;2023-12-14T04:52:01;27.63;;;18.38;;
21424;SDS011;10873;51.132;16.848;2023-12-14T04:54:27;26.30;;;17.52;;
21424;SDS011;10873;51.132;16.848;2023-12-14T04:56:55;25.70;;;17.88;;
21424;SDS011;10873;51.132;16.848;2023-12-14T04:59:20;24.92;;;17.23;;
21424;SDS011;10873;51.132;16.848;2023-12-14T05:01:47;25.95;;;17.27;;
21424;SDS011;10873;51.132;16.848;2023-12-14T05:04:13;25.75;;;17.58;;
21424;SDS011;10873;51.132;16.848;2023-12-14T05:06:39;28.17;;;18.38;;
21424;SDS011;10873;51.132;16.848;2023-12-14T05:09:05;24.42;;;17.52;;
21424;SDS011;10873;51.132;16.848;2023-12-14T05:11:32;25.17;;;17.70;;
21424;SDS011;10873;51.132;16.848;2023-12-14T05:13:59;26.63;;;16.95;;
21424;SDS011;10873;51.132;16.848;2023-12-14T05:16:25;25.60;;;16.75;;
21424;SDS011;10873;51.132;16.848;2023-12-14T05:18:52;27.77;;;18.30;;
21424;SDS011;10873;51.132;16.848;2023-12-14T05:21:18;24.90;;;17.35;;
21424;SDS011;10873;51.132;16.848;2023-12-14T05:23:44;24.67;;;17.48;;
21424;SDS011;10873;51.132;16.848;2023-12-14T05:26:10;23.85;;;16.80;;
21424;SDS011;10873;51.132;16.848;2023-12-14T05:28:36;25.10;;;16.73;;
21424;SDS011;10873;51.132;16.848;2023-12-14T05:31:04;25.02;;;17.38;;
21424;SDS011;10873;51.132;16.848;2023-12-14T05:33:30;26.25;;;17.52;;
21424;SDS011;10873;51.132;16.848;2023-12-14T05:35:56;25.30;;;17.70;;
21424;SDS011;10873;51.132;16.848;2023-12-14T05:38:22;25.38;;;17.23;;
21424;SDS011;10873;51.132;16.848;2023-12-14T05:40:49;25.25;;;17.00;;
21424;SDS011;10873;51.132;16.848;2023-12-14T05:43:15;23.08;;;16.67;;
21424;SDS011;10873;51.132;16.848;2023-12-14T05:45:41;23.25;;;16.58;;
21424;SDS011;10873;51.132;16.848;2023-12-14T05:48:09;25.42;;;16.83;;
21424;SDS011;10873;51.132;16.848;2023-12-14T05:50:35;24.83;;;16.77;;
21424;SDS011;10873;51.132;16.848;2023-12-14T05:53:01;23.13;;;15.50;;
21424;SDS011;10873;51.132;16.848;2023-12-14T05:55:27;23.23;;;16.35;;
21424;SDS011;10873;51.132;16.848;2023-12-14T05:57:53;21.05;;;15.32;;
21424;SDS011;10873;51.132;16.848;2023-12-14T06:00:20;22.17;;;15.90;;
21424;SDS011;10873;51.132;16.848;2023-12-14T06:02:46;23.65;;;16.42;;
21424;SDS011;10873;51.132;16.848;2023-12-14T06:05:14;46.80;;;19.48;;
21424;SDS011;10873;51.132;16.848;2023-12-14T06:07:40;37.67;;;18.17;;
21424;SDS011;10873;51.132;16.848;2023-12-14T06:10:06;35.13;;;17.45;;
21424;SDS011;10873;51.132;16.848;2023-12-14T06:12:33;28.60;;;17.17;;
21424;SDS011;10873;51.132;16.848;2023-12-14T06:14:59;28.13;;;16.55;;
21424;SDS011;10873;51.132;16.848;2023-12-14T06:17:25;28.73;;;17.67;;
21424;SDS011;10873;51.132;16.848;2023-12-14T06:19:51;31.88;;;17.17;;
21424;SDS011;10873;51.132;16.848;2023-12-14T06:22:18;30.15;;;17.50;;
21424;SDS011;10873;51.132;16.848;2023-12-14T06:24:44;27.63;;;16.40;;
21424;SDS011;10873;51.132;16.848;2023-12-14T06:27:11;26.98;;;16.45;;
21424;SDS011;10873;51.132;16.848;2023-12-14T06:29:37;25.67;;;16.50;;
21424;SDS011;10873;51.132;16.848;2023-12-14T06:32:03;25.55;;;16.00;;
21424;SDS011;10873;51.132;16.848;2023-12-14T06:34:30;26.60;;;15.88;;
21424;SDS011;10873;51.132;16.848;2023-12-14T06:36:56;22.85;;;15.70;;
21424;SDS011;10873;51.132;16.848;2023-12-14T06:39:26;21.65;;;15.30;;
21424;SDS011;10873;51.132;16.848;2023-12-14T06:41:52;25.85;;;15.50;;
21424;SDS011;10873;51.132;16.848;2023-12-14T06:44:19;22.17;;;14.63;;
21424;SDS011;10873;51.132;16.848;2023-12-14T06:46:45;22.42;;;15.45;;
21424;SDS011;10873;51.132;16.848;2023-12-14T06:49:11;21.02;;;15.13;;
21424;SDS011;10873;51.132;16.848;2023-12-14T06:51:37;18.90;;;14.05;;
21424;SDS011;10873;51.132;16.848;2023-12-14T06:54:03;21.90;;;13.88;;
21424;SDS011;10873;51.132;16.848;2023-12-14T06:56:30;22.30;;;14.52;;
21424;SDS011;10873;51.132;16.848;2023-12-14T06:58:57;20.27;;;14.45;;
21424;SDS011;10873;51.132;16.848;2023-12-14T07:01:23;20.42;;;14.07;;
21424;SDS011;10873;51.132;16.848;2023-12-14T07:03:49;18.75;;;14.02;;
21424;SDS011;10873;51.132;16.848;2023-12-14T07:06:15;19.00;;;14.13;;
21424;SDS011;10873;51.132;16.848;2023-12-14T07:08:43;18.60;;;13.43;;
21424;SDS011;10873;51.132;16.848;2023-12-14T07:11:09;20.85;;;14.07;;
21424;SDS011;10873;51.132;16.848;2023-12-14T07:13:38;20.25;;;13.85;;
21424;SDS011;10873;51.132;16.848;2023-12-14T07:16:04;18.40;;;13.50;;
21424;SDS011;10873;51.132;16.848;2023-12-14T07:18:33;18.67;;;13.40;;
21424;SDS011;10873;51.132;16.848;2023-12-14T07:21:00;18.20;;;13.38;;
21424;SDS011;10873;51.132;16.848;2023-12-14T07:23:26;17.42;;;12.52;;
21424;SDS011;10873;51.132;16.848;2023-12-14T07:25:52;15.98;;;12.50;;
21424;SDS011;10873;51.132;16.848;2023-12-14T07:28:18;17.80;;;13.38;;
21424;SDS011;10873;51.132;16.848;2023-12-14T07:30:46;17.17;;;13.05;;
21424;SDS011;10873;51.132;16.848;2023-12-14T07:33:12;19.42;;;14.70;;
21424;SDS011;10873;51.132;16.848;2023-12-14T07:35:38;20.63;;;15.38;;
21424;SDS011;10873;51.132;16.848;2023-12-14T07:38:04;20.58;;;15.60;;
21424;SDS011;10873;51.132;16.848;2023-12-14T07:40:30;21.48;;;16.58;;
21424;SDS011;10873;51.132;16.848;2023-12-14T07:42:56;22.60;;;17.08;;
21424;SDS011;10873;51.132;16.848;2023-12-14T07:45:22;21.05;;;16.35;;
21424;SDS011;10873;51.132;16.848;2023-12-14T07:47:50;23.02;;;16.27;;
21424;SDS011;10873;51.132;16.848;2023-12-14T07:50:16;22.38;;;16.50;;
21424;SDS011;10873;51.132;16.848;2023-12-14T07:52:43;20.95;;;15.93;;
21424;SDS011;10873;51.132;16.848;2023-12-14T07:55:09;20.73;;;15.50;;
21424;SDS011;10873;51.132;16.848;2023-12-14T07:57:35;19.35;;;14.98;;
21424;SDS011;10873;51.132;16.848;2023-12-14T08:00:01;18.20;;;14.85;;
21424;SDS011;10873;51.132;16.848;2023-12-14T08:02:27;22.17;;;14.52;;
21424;SDS011;10873;51.132;16.848;2023-12-14T08:04:54;18.98;;;14.43;;
21424;SDS011;10873;51.132;16.848;2023-12-14T08:07:20;19.92;;;14.23;;
21424;SDS011;10873;51.132;16.848;2023-12-14T08:09:46;18.88;;;14.40;;
21424;SDS011;10873;51.132;16.848;2023-12-14T08:12:12;19.00;;;13.73;;
21424;SDS011;10873;51.132;16.848;2023-12-14T08:14:38;20.10;;;14.95;;
21424;SDS011;10873;51.132;16.848;2023-12-14T08:17:09;19.02;;;14.75;;
21424;SDS011;10873;51.132;16.848;2023-12-14T08:19:36;21.58;;;14.35;;
21424;SDS011;10873;51.132;16.848;2023-12-14T08:22:03;22.17;;;15.43;;
21424;SDS011;10873;51.132;16.848;2023-12-14T08:24:29;21.48;;;15.52;;
21424;SDS011;10873;51.132;16.848;2023-12-14T08:26:55;20.42;;;15.23;;
21424;SDS011;10873;51.132;16.848;2023-12-14T08:29:21;23.90;;;16.02;;
21424;SDS011;10873;51.132;16.848;2023-12-14T08:31:47;27.40;;;17.48;;
21424;SDS011;10873;51.132;16.848;2023-12-14T08:34:13;26.83;;;16.55;;
21424;SDS011;10873;51.132;16.848;2023-12-14T08:36:39;28.08;;;17.92;;
21424;SDS011;10873;51.132;16.848;2023-12-14T08:39:07;29.10;;;18.17;;
21424;SDS011;10873;51.132;16.848;2023-12-14T08:41:33;33.05;;;20.33;;
21424;SDS011;10873;51.132;16.848;2023-12-14T08:43:59;32.60;;;21.15;;
21424;SDS011;10873;51.132;16.848;2023-12-14T08:46:25;34.42;;;21.05;;
21424;SDS011;10873;51.132;16.848;2023-12-14T08:48:51;40.45;;;22.88;;
21424;SDS011;10873;51.132;16.848;2023-12-14T08:51:17;45.38;;;25.38;;
21424;SDS011;10873;51.132;16.848;2023-12-14T08:53:46;44.45;;;25.48;;
21424;SDS011;10873;51.132;16.848;2023-12-14T08:56:13;46.97;;;25.83;;
21424;SDS011;10873;51.132;16.848;2023-12-14T08:58:39;46.97;;;26.15;;
21424;SDS011;10873;51.132;16.848;2023-12-14T09:01:05;54.83;;;29.15;;
21424;SDS011;10873;51.132;16.848;2023-12-14T09:03:31;53.22;;;29.00;;
21424;SDS011;10873;51.132;16.848;2023-12-14T09:05:57;51.63;;;28.70;;
21424;SDS011;10873;51.132;16.848;2023-12-14T09:08:24;56.47;;;28.98;;
21424;SDS011;10873;51.132;16.848;2023-12-14T09:10:50;52.38;;;29.60;;
21424;SDS011;10873;51.132;16.848;2023-12-14T09:13:17;55.90;;;30.73;;
21424;SDS011;10873;51.132;16.848;2023-12-14T09:15:43;55.42;;;31.92;;
21424;SDS011;10873;51.132;16.848;2023-12-14T09:18:09;53.88;;;31.98;;
21424;SDS011;10873;51.132;16.848;2023-12-14T09:20:35;58.80;;;32.55;;
21424;SDS011;10873;51.132;16.848;2023-12-14T09:23:03;54.50;;;30.48;;
21424;SDS011;10873;51.132;16.848;2023-12-14T09:25:28;50.30;;;29.48;;
21424;SDS011;10873;51.132;16.848;2023-12-14T09:27:55;51.85;;;29.42;;
21424;SDS011;10873;51.132;16.848;2023-12-14T09:30:22;54.05;;;29.33;;
21424;SDS011;10873;51.132;16.848;2023-12-14T09:32:48;49.83;;;28.40;;
21424;SDS011;10873;51.132;16.848;2023-12-14T09:35:14;48.30;;;26.88;;
21424;SDS011;10873;51.132;16.848;2023-12-14T09:37:40;52.65;;;28.95;;
21424;SDS011;10873;51.132;16.848;2023-12-14T09:40:07;46.67;;;27.75;;
21424;SDS011;10873;51.132;16.848;2023-12-14T09:42:36;46.13;;;26.77;;
21424;SDS011;10873;51.132;16.848;2023-12-14T09:45:03;46.03;;;26.38;;
21424;SDS011;10873;51.132;16.848;2023-12-14T09:47:33;46.35;;;26.27;;
21424;SDS011;10873;51.132;16.848;2023-12-14T09:49:59;49.90;;;26.25;;
21424;SDS011;10873;51.132;16.848;2023-12-14T09:52:26;42.55;;;24.98;;
21424;SDS011;10873;51.132;16.848;2023-12-14T09:54:52;42.30;;;24.25;;
21424;SDS011;10873;51.132;16.848;2023-12-14T09:57:18;42.05;;;24.20;;
21424;SDS011;10873;51.132;16.848;2023-12-14T09:59:50;44.90;;;25.02;;
21424;SDS011;10873;51.132;16.848;2023-12-14T10:02:16;39.15;;;23.00;;
21424;SDS011;10873;51.132;16.848;2023-12-14T10:04:44;42.65;;;23.52;;
21424;SDS011;10873;51.132;16.848;2023-12-14T10:07:10;40.35;;;24.00;;
21424;SDS011;10873;51.132;16.848;2023-12-14T10:09:36;37.83;;;23.08;;
21424;SDS011;10873;51.132;16.848;2023-12-14T10:12:04;37.55;;;22.00;;
21424;SDS011;10873;51.132;16.848;2023-12-14T10:14:31;42.13;;;22.75;;
21424;SDS011;10873;51.132;16.848;2023-12-14T10:16:58;36.33;;;20.48;;
21424;SDS011;10873;51.132;16.848;2023-12-14T10:19:39;40.80;;;22.20;;
21424;SDS011;10873;51.132;16.848;2023-12-14T10:22:09;36.97;;;21.48;;
21424;SDS011;10873;51.132;16.848;2023-12-14T10:24:35;37.75;;;22.58;;
21424;SDS011;10873;51.132;16.848;2023-12-14T10:27:04;50.13;;;29.83;;
21424;SDS011;10873;51.132;16.848;2023-12-14T10:29:32;59.05;;;36.42;;
21424;SDS011;10873;51.132;16.848;2023-12-14T10:31:59;74.55;;;44.95;;
21424;SDS011;10873;51.132;16.848;2023-12-14T10:34:27;79.25;;;46.95;;
21424;SDS011;10873;51.132;16.848;2023-12-14T10:36:54;85.32;;;50.78;;
21424;SDS011;10873;51.132;16.848;2023-12-14T10:39:20;77.60;;;45.83;;
21424;SDS011;10873;51.132;16.848;2023-12-14T10:41:47;63.55;;;40.83;;
21424;SDS011;10873;51.132;16.848;2023-12-14T10:44:15;66.82;;;37.88;;
21424;SDS011;10873;51.132;16.848;2023-12-14T10:46:42;54.20;;;34.60;;
21424;SDS011;10873;51.132;16.848;2023-12-14T10:49:11;57.45;;;36.42;;
21424;SDS011;10873;51.132;16.848;2023-12-14T10:51:37;54.60;;;35.72;;
21424;SDS011;10873;51.132;16.848;2023-12-14T10:54:09;52.28;;;32.80;;
21424;SDS011;10873;51.132;16.848;2023-12-14T10:56:35;51.53;;;31.98;;
21424;SDS011;10873;51.132;16.848;2023-12-14T10:59:02;49.38;;;30.10;;
21424;SDS011;10873;51.132;16.848;2023-12-14T11:01:30;44.88;;;28.20;;
21424;SDS011;10873;51.132;16.848;2023-12-14T11:04:00;42.65;;;26.42;;
21424;SDS011;10873;51.132;16.848;2023-12-14T11:06:30;42.50;;;26.48;;
21424;SDS011;10873;51.132;16.848;2023-12-14T11:08:58;41.05;;;26.35;;
21424;SDS011;10873;51.132;16.848;2023-12-14T11:11:30;42.45;;;25.95;;
21424;SDS011;10873;51.132;16.848;2023-12-14T11:14:03;38.03;;;24.85;;
21424;SDS011;10873;51.132;16.848;2023-12-14T11:16:34;36.80;;;23.00;;
21424;SDS011;10873;51.132;16.848;2023-12-14T11:22:22;34.38;;;22.13;;
21424;SDS011;10873;51.132;16.848;2023-12-14T11:24:52;34.25;;;21.45;;
21424;SDS011;10873;51.132;16.848;2023-12-14T11:27:22;31.45;;;20.25;;
21424;SDS011;10873;51.132;16.848;2023-12-14T11:29:52;32.17;;;20.02;;
21424;SDS011;10873;51.132;16.848;2023-12-14T11:32:19;29.08;;;19.08;;
21424;SDS011;10873;51.132;16.848;2023-12-14T11:34:45;28.33;;;18.58;;
21424;SDS011;10873;51.132;16.848;2023-12-14T11:37:12;29.25;;;18.58;;
21424;SDS011;10873;51.132;16.848;2023-12-14T11:39:38;29.83;;;18.27;;
21424;SDS011;10873;51.132;16.848;2023-12-14T11:42:05;27.08;;;17.77;;
21424;SDS011;10873;51.132;16.848;2023-12-14T11:44:37;25.38;;;16.65;;
21424;SDS011;10873;51.132;16.848;2023-12-14T11:47:03;24.23;;;16.77;;
21424;SDS011;10873;51.132;16.848;2023-12-14T11:49:29;25.83;;;16.67;;
21424;SDS011;10873;51.132;16.848;2023-12-14T11:51:57;24.23;;;15.75;;
21424;SDS011;10873;51.132;16.848;2023-12-14T11:54:27;23.83;;;15.52;;
21424;SDS011;10873;51.132;16.848;2023-12-14T11:56:53;21.40;;;14.93;;
21424;SDS011;10873;51.132;16.848;2023-12-14T11:59:19;24.15;;;15.70;;
21424;SDS011;10873;51.132;16.848;2023-12-14T12:01:57;21.23;;;15.45;;
21424;SDS011;10873;51.132;16.848;2023-12-14T12:04:24;23.50;;;15.40;;
21424;SDS011;10873;51.132;16.848;2023-12-14T12:06:58;22.67;;;14.18;;
21424;SDS011;10873;51.132;16.848;2023-12-14T12:09:32;23.05;;;15.38;;
21424;SDS011;10873;51.132;16.848;2023-12-14T12:12:00;21.58;;;14.38;;
21424;SDS011;10873;51.132;16.848;2023-12-14T12:14:27;23.55;;;14.90;;
21424;SDS011;10873;51.132;16.848;2023-12-14T12:16:53;21.98;;;14.40;;
21424;SDS011;10873;51.132;16.848;2023-12-14T12:19:21;24.45;;;15.13;;
21424;SDS011;10873;51.132;16.848;2023-12-14T12:21:47;22.60;;;14.82;;
21424;SDS011;10873;51.132;16.848;2023-12-14T12:24:13;22.77;;;14.70;;
21424;SDS011;10873;51.132;16.848;2023-12-14T12:26:39;21.52;;;15.02;;
21424;SDS011;10873;51.132;16.848;2023-12-14T12:29:05;21.88;;;14.63;;
21424;SDS011;10873;51.132;16.848;2023-12-14T12:31:32;22.58;;;15.48;;
21424;SDS011;10873;51.132;16.848;2023-12-14T12:33:59;22.15;;;14.65;;
21424;SDS011;10873;51.132;16.848;2023-12-14T12:36:27;21.13;;;14.07;;
21424;SDS011;10873;51.132;16.848;2023-12-14T12:38:53;20.38;;;13.38;;
21424;SDS011;10873;51.132;16.848;2023-12-14T12:41:19;20.63;;;13.52;;
21424;SDS011;10873;51.132;16.848;2023-12-14T12:43:45;18.30;;;12.93;;
21424;SDS011;10873;51.132;16.848;2023-12-14T12:46:11;17.20;;;12.65;;
21424;SDS011;10873;51.132;16.848;2023-12-14T12:48:37;18.40;;;12.77;;
21424;SDS011;10873;51.132;16.848;2023-12-14T12:51:03;18.55;;;11.93;;
21424;SDS011;10873;51.132;16.848;2023-12-14T12:53:31;16.70;;;11.63;;
21424;SDS011;10873;51.132;16.848;2023-12-14T12:55:58;16.38;;;12.05;;
21424;SDS011;10873;51.132;16.848;2023-12-14T12:58:24;18.65;;;12.85;;
21424;SDS011;10873;51.132;16.848;2023-12-14T13:00:50;17.38;;;12.25;;
21424;SDS011;10873;51.132;16.848;2023-12-14T13:03:16;16.45;;;11.57;;
21424;SDS011;10873;51.132;16.848;2023-12-14T13:05:42;16.50;;;12.15;;
21424;SDS011;10873;51.132;16.848;2023-12-14T13:08:08;18.35;;;12.02;;
21424;SDS011;10873;51.132;16.848;2023-12-14T13:10:36;17.48;;;11.93;;
21424;SDS011;10873;51.132;16.848;2023-12-14T13:13:04;16.30;;;11.38;;
21424;SDS011;10873;51.132;16.848;2023-12-14T13:15:30;15.68;;;11.05;;
21424;SDS011;10873;51.132;16.848;2023-12-14T13:17:56;14.55;;;10.57;;
21424;SDS011;10873;51.132;16.848;2023-12-14T13:20:23;17.30;;;11.55;;
21424;SDS011;10873;51.132;16.848;2023-12-14T13:22:49;16.08;;;11.63;;
21424;SDS011;10873;51.132;16.848;2023-12-14T13:25:15;16.75;;;11.25;;
21424;SDS011;10873;51.132;16.848;2023-12-14T13:27:43;15.63;;;10.52;;
21424;SDS011;10873;51.132;16.848;2023-12-14T13:30:10;17.40;;;11.13;;
21424;SDS011;10873;51.132;16.848;2023-12-14T13:32:36;15.23;;;11.32;;
21424;SDS011;10873;51.132;16.848;2023-12-14T13:35:02;13.35;;;10.13;;
21424;SDS011;10873;51.132;16.848;2023-12-14T13:37:29;19.92;;;10.80;;
21424;SDS011;10873;51.132;16.848;2023-12-14T13:39:55;14.93;;;10.95;;
21424;SDS011;10873;51.132;16.848;2023-12-14T13:42:21;16.92;;;10.10;;
21424;SDS011;10873;51.132;16.848;2023-12-14T13:44:48;15.70;;;10.70;;
21424;SDS011;10873;51.132;16.848;2023-12-14T13:47:14;15.02;;;10.13;;
21424;SDS011;10873;51.132;16.848;2023-12-14T13:49:41;13.77;;;10.23;;
21424;SDS011;10873;51.132;16.848;2023-12-14T13:52:07;14.18;;;10.00;;
21424;SDS011;10873;51.132;16.848;2023-12-14T13:54:34;15.70;;;10.23;;
21424;SDS011;10873;51.132;16.848;2023-12-14T13:57:01;13.43;;;9.80;;
21424;SDS011;10873;51.132;16.848;2023-12-14T13:59:28;14.20;;;10.07;;
21424;SDS011;10873;51.132;16.848;2023-12-14T14:01:55;12.32;;;9.40;;
21424;SDS011;10873;51.132;16.848;2023-12-14T14:04:21;13.55;;;10.13;;
21424;SDS011;10873;51.132;16.848;2023-12-14T14:06:47;14.57;;;9.82;;
21424;SDS011;10873;51.132;16.848;2023-12-14T14:09:13;13.43;;;9.15;;